sensor_id;sensor_type;location;lat;lon;timestamp;pressure;altitude;pressure_sealevel;temperature;humidity
71465;BME280;59274;49.874;9.154;2022-10-30T00:00:24;100766.84;;;13.99;100.00
71465;BME280;59274;49.874;9.154;2022-10-30T00:02:50;100769.53;;;13.92;100.00
71465;BME280;59274;49.874;9.154;2022-10-30T00:05:16;100762.56;;;13.98;100.00
71465;BME280;59274;49.874;9.154;2022-10-30T00:07:53;100762.56;;;13.98;100.00
71465;BME280;59274;49.874;9.154;2022-10-30T00:10:19;100758.28;;;14.04;100.00
71465;BME280;59274;49.874;9.154;2022-10-30T00:12:44;100762.13;;;13.96;100.00
71465;BME280;59274;49.874;9.154;2022-10-30T00:15:10;100763.34;;;13.98;100.00
71465;BME280;59274;49.874;9.154;2022-10-30T00:17:36;100760.53;;;13.88;100.00
71465;BME280;59274;49.874;9.154;2022-10-30T00:20:02;100762.88;;;13.89;100.00
71465;BME280;59274;49.874;9.154;2022-10-30T00:22:28;100762.50;;;13.91;100.00
71465;BME280;59274;49.874;9.154;2022-10-30T00:24:53;100758.59;;;13.88;100.00
71465;BME280;59274;49.874;9.154;2022-10-30T00:27:19;100740.97;;;13.75;100.00
71465;BME280;59274;49.874;9.154;2022-10-30T00:29:44;100751.50;;;13.77;100.00
71465;BME280;59274;49.874;9.154;2022-10-30T00:32:10;100747.97;;;13.72;100.00
71465;BME280;59274;49.874;9.154;2022-10-30T00:34:35;100740.91;;;13.68;100.00
71465;BME280;59274;49.874;9.154;2022-10-30T00:37:01;100746.41;;;13.75;100.00
71465;BME280;59274;49.874;9.154;2022-10-30T00:39:26;100745.22;;;13.69;100.00
71465;BME280;59274;49.874;9.154;2022-10-30T00:41:51;100748.78;;;13.77;100.00
71465;BME280;59274;49.874;9.154;2022-10-30T00:44:50;100743.69;;;13.75;100.00
71465;BME280;59274;49.874;9.154;2022-10-30T00:47:36;100742.50;;;13.69;100.00
71465;BME280;59274;49.874;9.154;2022-10-30T00:52:33;100747.84;;;13.55;100.00
71465;BME280;59274;49.874;9.154;2022-10-30T00:55:05;100745.06;;;13.48;100.00
71465;BME280;59274;49.874;9.154;2022-10-30T00:57:33;100744.66;;;13.42;100.00
71465;BME280;59274;49.874;9.154;2022-10-30T01:00:00;100739.94;;;13.39;100.00
71465;BME280;59274;49.874;9.154;2022-10-30T01:02:25;100737.59;;;13.38;100.00
71465;BME280;59274;49.874;9.154;2022-10-30T01:04:51;100739.56;;;13.41;100.00
71465;BME280;59274;49.874;9.154;2022-10-30T01:07:21;100745.44;;;13.43;100.00
71465;BME280;59274;49.874;9.154;2022-10-30T01:09:47;100742.72;;;13.43;100.00
71465;BME280;59274;49.874;9.154;2022-10-30T01:12:14;100739.53;;;13.37;100.00
71465;BME280;59274;49.874;9.154;2022-10-30T01:14:44;100736.00;;;13.33;100.00
71465;BME280;59274;49.874;9.154;2022-10-30T01:22:43;100737.50;;;13.27;100.00
71465;BME280;59274;49.874;9.154;2022-10-30T01:25:34;100725.78;;;13.23;100.00
71465;BME280;59274;49.874;9.154;2022-10-30T01:33:31;100721.03;;;13.16;100.00
71465;BME280;59274;49.874;9.154;2022-10-30T01:39:12;100718.31;;;13.16;100.00
71465;BME280;59274;49.874;9.154;2022-10-30T01:41:38;100713.63;;;13.13;100.00
71465;BME280;59274;49.874;9.154;2022-10-30T01:44:12;100719.53;;;13.19;100.00
71465;BME280;59274;49.874;9.154;2022-10-30T01:46:49;100712.09;;;13.16;100.00
71465;BME280;59274;49.874;9.154;2022-10-30T01:49:45;100714.34;;;13.10;100.00
71465;BME280;59274;49.874;9.154;2022-10-30T01:52:39;100714.28;;;13.03;100.00
71465;BME280;59274;49.874;9.154;2022-10-30T01:55:41;100711.53;;;13.00;100.00
71465;BME280;59274;49.874;9.154;2022-10-30T01:58:23;100709.97;;;12.99;100.00
71465;BME280;59274;49.874;9.154;2022-10-30T02:00:53;100705.31;;;13.03;100.00
71465;BME280;59274;49.874;9.154;2022-10-30T02:03:19;100706.91;;;13.04;100.00
71465;BME280;59274;49.874;9.154;2022-10-30T02:05:50;100706.41;;;12.94;100.00
71465;BME280;59274;49.874;9.154;2022-10-30T02:08:16;100711.41;;;12.85;100.00
71465;BME280;59274;49.874;9.154;2022-10-30T02:10:43;100712.16;;;12.82;100.00
71465;BME280;59274;49.874;9.154;2022-10-30T02:13:09;100712.59;;;12.88;100.00
71465;BME280;59274;49.874;9.154;2022-10-30T02:15:35;100712.16;;;12.82;100.00
71465;BME280;59274;49.874;9.154;2022-10-30T02:18:01;100707.13;;;12.84;100.00
71465;BME280;59274;49.874;9.154;2022-10-30T02:20:26;100710.22;;;12.83;100.00
71465;BME280;59274;49.874;9.154;2022-10-30T02:22:52;100705.91;;;12.78;100.00
71465;BME280;59274;49.874;9.154;2022-10-30T02:25:18;100709.00;;;12.77;100.00
71465;BME280;59274;49.874;9.154;2022-10-30T02:27:43;100703.25;;;12.85;100.00
71465;BME280;59274;49.874;9.154;2022-10-30T02:30:09;100704.84;;;12.90;100.00
71465;BME280;59274;49.874;9.154;2022-10-30T02:32:35;100707.13;;;12.88;100.00
71465;BME280;59274;49.874;9.154;2022-10-30T02:35:01;100706.34;;;12.87;100.00
71465;BME280;59274;49.874;9.154;2022-10-30T02:37:27;100701.28;;;12.86;100.00
71465;BME280;59274;49.874;9.154;2022-10-30T02:39:52;100695.44;;;12.84;100.00
71465;BME280;59274;49.874;9.154;2022-10-30T02:42:18;100692.78;;;12.91;100.00
71465;BME280;59274;49.874;9.154;2022-10-30T02:44:43;100697.72;;;12.78;100.00
71465;BME280;59274;49.874;9.154;2022-10-30T02:47:09;100697.31;;;12.76;100.00
71465;BME280;59274;49.874;9.154;2022-10-30T02:49:35;100698.13;;;12.80;100.00
71465;BME280;59274;49.874;9.154;2022-10-30T02:52:00;100701.94;;;12.72;100.00
71465;BME280;59274;49.874;9.154;2022-10-30T02:54:26;100700.41;;;12.75;100.00
71465;BME280;59274;49.874;9.154;2022-10-30T02:56:51;100701.97;;;12.76;100.00
71465;BME280;59274;49.874;9.154;2022-10-30T02:59:17;100708.94;;;12.73;100.00
71465;BME280;59274;49.874;9.154;2022-10-30T03:01:42;100708.94;;;12.73;100.00
71465;BME280;59274;49.874;9.154;2022-10-30T03:04:08;100703.84;;;12.68;100.00
71465;BME280;59274;49.874;9.154;2022-10-30T03:06:34;100707.34;;;12.69;100.00
71465;BME280;59274;49.874;9.154;2022-10-30T03:08:59;100710.03;;;12.65;100.00
71465;BME280;59274;49.874;9.154;2022-10-30T03:11:25;100708.06;;;12.62;100.00
71465;BME280;59274;49.874;9.154;2022-10-30T03:13:50;100706.88;;;12.60;100.00
71465;BME280;59274;49.874;9.154;2022-10-30T03:16:18;100715.03;;;12.56;100.00
71465;BME280;59274;49.874;9.154;2022-10-30T03:18:45;100712.69;;;12.58;100.00
71465;BME280;59274;49.874;9.154;2022-10-30T03:21:14;100714.59;;;12.54;100.00
71465;BME280;59274;49.874;9.154;2022-10-30T03:23:40;100711.88;;;12.54;100.00
71465;BME280;59274;49.874;9.154;2022-10-30T03:26:05;100710.72;;;12.55;100.00
71465;BME280;59274;49.874;9.154;2022-10-30T03:28:31;100716.19;;;12.55;100.00
71465;BME280;59274;49.874;9.154;2022-10-30T03:31:07;100722.00;;;12.53;100.00
71465;BME280;59274;49.874;9.154;2022-10-30T03:33:34;100722.78;;;12.54;100.00
71465;BME280;59274;49.874;9.154;2022-10-30T03:35:59;100721.25;;;12.57;100.00
71465;BME280;59274;49.874;9.154;2022-10-30T03:38:25;100721.63;;;12.55;100.00
71465;BME280;59274;49.874;9.154;2022-10-30T03:40:51;100726.72;;;12.57;100.00
71465;BME280;59274;49.874;9.154;2022-10-30T03:43:17;100724.34;;;12.55;100.00
71465;BME280;59274;49.874;9.154;2022-10-30T03:45:50;100725.09;;;12.52;100.00
71465;BME280;59274;49.874;9.154;2022-10-30T03:48:18;100721.53;;;12.48;100.00
71465;BME280;59274;49.874;9.154;2022-10-30T03:50:44;100722.28;;;12.45;100.00
71465;BME280;59274;49.874;9.154;2022-10-30T03:53:10;100725.44;;;12.50;100.00
71465;BME280;59274;49.874;9.154;2022-10-30T03:55:36;100728.06;;;12.40;100.00
71465;BME280;59274;49.874;9.154;2022-10-30T03:58:02;100732.38;;;12.41;100.00
71465;BME280;59274;49.874;9.154;2022-10-30T04:00:28;100733.53;;;12.40;100.00
71465;BME280;59274;49.874;9.154;2022-10-30T04:02:53;100727.63;;;12.34;100.00
71465;BME280;59274;49.874;9.154;2022-10-30T04:05:20;100729.91;;;12.29;100.00
71465;BME280;59274;49.874;9.154;2022-10-30T04:07:47;100734.13;;;12.26;100.00
71465;BME280;59274;49.874;9.154;2022-10-30T04:10:13;100728.25;;;12.21;100.00
71465;BME280;59274;49.874;9.154;2022-10-30T04:12:39;100726.38;;;12.28;100.00
71465;BME280;59274;49.874;9.154;2022-10-30T04:15:07;100718.50;;;12.20;100.00
71465;BME280;59274;49.874;9.154;2022-10-30T04:17:33;100718.59;;;12.27;100.00
71465;BME280;59274;49.874;9.154;2022-10-30T04:19:58;100719.31;;;12.24;100.00
71465;BME280;59274;49.874;9.154;2022-10-30T04:22:24;100721.34;;;12.30;100.00
71465;BME280;59274;49.874;9.154;2022-10-30T04:24:50;100714.72;;;12.28;100.00
71465;BME280;59274;49.874;9.154;2022-10-30T04:27:15;100716.22;;;12.25;100.00
71465;BME280;59274;49.874;9.154;2022-10-30T04:29:41;100721.66;;;12.25;100.00
71465;BME280;59274;49.874;9.154;2022-10-30T04:32:07;100721.22;;;12.20;100.00
71465;BME280;59274;49.874;9.154;2022-10-30T04:34:33;100720.00;;;12.17;100.00
71465;BME280;59274;49.874;9.154;2022-10-30T04:36:59;100716.13;;;12.14;100.00
71465;BME280;59274;49.874;9.154;2022-10-30T04:39:24;100709.88;;;12.14;100.00
71465;BME280;59274;49.874;9.154;2022-10-30T04:41:53;100711.44;;;12.15;100.00
71465;BME280;59274;49.874;9.154;2022-10-30T04:44:18;100710.28;;;12.16;100.00
71465;BME280;59274;49.874;9.154;2022-10-30T04:46:44;100708.25;;;12.09;100.00
71465;BME280;59274;49.874;9.154;2022-10-30T04:49:09;100708.69;;;12.11;100.00
71465;BME280;59274;49.874;9.154;2022-10-30T04:51:35;100716.84;;;12.11;100.00
71465;BME280;59274;49.874;9.154;2022-10-30T04:54:00;100711.81;;;12.13;100.00
71465;BME280;59274;49.874;9.154;2022-10-30T04:56:25;100711.75;;;12.10;100.00
71465;BME280;59274;49.874;9.154;2022-10-30T04:58:51;100711.72;;;12.06;100.00
71465;BME280;59274;49.874;9.154;2022-10-30T05:01:17;100710.09;;;12.02;100.00
71465;BME280;59274;49.874;9.154;2022-10-30T05:03:43;100708.13;;;11.99;100.00
71465;BME280;59274;49.874;9.154;2022-10-30T05:06:28;100705.34;;;11.95;100.00
71465;BME280;59274;49.874;9.154;2022-10-30T05:08:55;100697.53;;;11.90;100.00
71465;BME280;59274;49.874;9.154;2022-10-30T05:11:22;100690.06;;;11.87;100.00
71465;BME280;59274;49.874;9.154;2022-10-30T05:13:47;100704.06;;;11.86;100.00
71465;BME280;59274;49.874;9.154;2022-10-30T05:16:13;100705.59;;;11.83;100.00
71465;BME280;59274;49.874;9.154;2022-10-30T05:18:38;100693.56;;;11.84;100.00
71465;BME280;59274;49.874;9.154;2022-10-30T05:21:04;100705.53;;;11.80;100.00
71465;BME280;59274;49.874;9.154;2022-10-30T05:23:30;100701.19;;;11.75;100.00
71465;BME280;59274;49.874;9.154;2022-10-30T05:25:55;100694.97;;;11.74;100.00
71465;BME280;59274;49.874;9.154;2022-10-30T05:28:21;100690.84;;;11.84;100.00
71465;BME280;59274;49.874;9.154;2022-10-30T05:30:46;100687.25;;;11.80;100.00
71465;BME280;59274;49.874;9.154;2022-10-30T05:33:13;100686.53;;;11.83;100.00
71465;BME280;59274;49.874;9.154;2022-10-30T05:35:41;100689.25;;;11.83;100.00
71465;BME280;59274;49.874;9.154;2022-10-30T05:38:07;100696.59;;;11.79;100.00
71465;BME280;59274;49.874;9.154;2022-10-30T05:40:34;100697.69;;;11.74;100.00
71465;BME280;59274;49.874;9.154;2022-10-30T05:42:59;100699.22;;;11.72;100.00
71465;BME280;59274;49.874;9.154;2022-10-30T05:45:25;100697.56;;;11.67;100.00
71465;BME280;59274;49.874;9.154;2022-10-30T05:47:55;100702.22;;;11.67;100.00
71465;BME280;59274;49.874;9.154;2022-10-30T05:50:20;100701.75;;;11.61;100.00
71465;BME280;59274;49.874;9.154;2022-10-30T05:52:46;100700.56;;;11.59;100.00
71465;BME280;59274;49.874;9.154;2022-10-30T05:55:11;100702.44;;;11.55;100.00
71465;BME280;59274;49.874;9.154;2022-10-30T05:57:37;100702.91;;;11.60;100.00
71465;BME280;59274;49.874;9.154;2022-10-30T06:00:03;100704.06;;;11.59;100.00
71465;BME280;59274;49.874;9.154;2022-10-30T06:02:29;100700.94;;;11.57;100.00
71465;BME280;59274;49.874;9.154;2022-10-30T06:04:54;100709.09;;;11.57;100.00
71465;BME280;59274;49.874;9.154;2022-10-30T06:07:19;100709.47;;;11.56;100.00
71465;BME280;59274;49.874;9.154;2022-10-30T06:09:45;100714.91;;;11.56;100.00
71465;BME280;59274;49.874;9.154;2022-10-30T06:12:10;100712.19;;;11.56;100.00
71465;BME280;59274;49.874;9.154;2022-10-30T06:14:36;100712.19;;;11.56;100.00
71465;BME280;59274;49.874;9.154;2022-10-30T06:17:01;100720.78;;;11.58;100.00
71465;BME280;59274;49.874;9.154;2022-10-30T06:19:27;100719.22;;;11.60;100.00
71465;BME280;59274;49.874;9.154;2022-10-30T06:21:52;100717.31;;;11.61;100.00
71465;BME280;59274;49.874;9.154;2022-10-30T06:24:19;100721.97;;;11.60;100.00
71465;BME280;59274;49.874;9.154;2022-10-30T06:26:44;100721.22;;;11.63;100.00
71465;BME280;59274;49.874;9.154;2022-10-30T06:29:10;100724.31;;;11.62;100.00
71465;BME280;59274;49.874;9.154;2022-10-30T06:31:35;100730.19;;;11.64;100.00
71465;BME280;59274;49.874;9.154;2022-10-30T06:34:01;100727.75;;;11.59;100.00
71465;BME280;59274;49.874;9.154;2022-10-30T06:36:26;100731.94;;;11.53;100.00
71465;BME280;59274;49.874;9.154;2022-10-30T06:38:52;100740.09;;;11.53;100.00
71465;BME280;59274;49.874;9.154;2022-10-30T06:41:17;100741.63;;;11.50;100.00
71465;BME280;59274;49.874;9.154;2022-10-30T06:43:43;100748.22;;;11.49;100.00
71465;BME280;59274;49.874;9.154;2022-10-30T06:46:08;100743.19;;;11.51;100.00
71465;BME280;59274;49.874;9.154;2022-10-30T06:48:34;100742.81;;;11.53;100.00
71465;BME280;59274;49.874;9.154;2022-10-30T06:50:59;100742.47;;;11.54;100.00
71465;BME280;59274;49.874;9.154;2022-10-30T06:53:27;100751.00;;;11.53;100.00
71465;BME280;59274;49.874;9.154;2022-10-30T06:55:57;100747.53;;;11.56;100.00
71465;BME280;59274;49.874;9.154;2022-10-30T06:58:23;100746.75;;;11.55;100.00
71465;BME280;59274;49.874;9.154;2022-10-30T07:00:49;100745.97;;;11.55;100.00
71465;BME280;59274;49.874;9.154;2022-10-30T07:03:15;100744.03;;;11.55;100.00
71465;BME280;59274;49.874;9.154;2022-10-30T07:05:43;100746.44;;;11.60;100.00
71465;BME280;59274;49.874;9.154;2022-10-30T07:08:09;100754.25;;;11.62;100.00
71465;BME280;59274;49.874;9.154;2022-10-30T07:10:34;100760.16;;;11.67;100.00
71465;BME280;59274;49.874;9.154;2022-10-30T07:13:00;100758.63;;;11.70;100.00
71465;BME280;59274;49.874;9.154;2022-10-30T07:15:26;100759.06;;;11.72;100.00
71465;BME280;59274;49.874;9.154;2022-10-30T07:17:56;100756.41;;;11.75;100.00
71465;BME280;59274;49.874;9.154;2022-10-30T07:20:23;100757.56;;;11.74;100.00
71465;BME280;59274;49.874;9.154;2022-10-30T07:22:48;100758.34;;;11.75;100.00
71465;BME280;59274;49.874;9.154;2022-10-30T07:25:14;100765.66;;;11.71;100.00
71465;BME280;59274;49.874;9.154;2022-10-30T07:27:47;100766.06;;;11.73;100.00
71465;BME280;59274;49.874;9.154;2022-10-30T07:30:15;100762.94;;;11.71;100.00
71465;BME280;59274;49.874;9.154;2022-10-30T07:32:41;100763.06;;;11.78;100.00
71465;BME280;59274;49.874;9.154;2022-10-30T07:35:08;100762.53;;;11.72;100.00
71465;BME280;59274;49.874;9.154;2022-10-30T07:37:34;100756.16;;;11.84;100.00
71465;BME280;59274;49.874;9.154;2022-10-30T07:40:00;100766.28;;;11.87;100.00
71465;BME280;59274;49.874;9.154;2022-10-30T07:42:28;100764.41;;;11.91;100.00
71465;BME280;59274;49.874;9.154;2022-10-30T07:44:53;100769.59;;;12.00;100.00
71465;BME280;59274;49.874;9.154;2022-10-30T07:47:19;100768.13;;;12.06;100.00
71465;BME280;59274;49.874;9.154;2022-10-30T07:49:44;100774.34;;;12.06;100.00
71465;BME280;59274;49.874;9.154;2022-10-30T07:52:10;100773.59;;;12.09;100.00
71465;BME280;59274;49.874;9.154;2022-10-30T07:54:35;100776.03;;;12.14;100.00
71465;BME280;59274;49.874;9.154;2022-10-30T07:57:01;100774.56;;;12.24;100.00
71465;BME280;59274;49.874;9.154;2022-10-30T07:59:27;100766.06;;;12.29;100.00
71465;BME280;59274;49.874;9.154;2022-10-30T08:01:53;100778.25;;;12.39;100.00
71465;BME280;59274;49.874;9.154;2022-10-30T08:04:18;100773.31;;;12.48;100.00
71465;BME280;59274;49.874;9.154;2022-10-30T08:06:43;100770.22;;;12.49;100.00
71465;BME280;59274;49.874;9.154;2022-10-30T08:09:09;100777.28;;;12.54;100.00
71465;BME280;59274;49.874;9.154;2022-10-30T08:11:35;100785.88;;;12.56;100.00
71465;BME280;59274;49.874;9.154;2022-10-30T08:14:00;100777.38;;;12.65;100.00
71465;BME280;59274;49.874;9.154;2022-10-30T08:16:26;100778.16;;;12.65;100.00
71465;BME280;59274;49.874;9.154;2022-10-30T08:18:52;100777.78;;;12.67;100.00
71465;BME280;59274;49.874;9.154;2022-10-30T08:21:18;100777.44;;;12.68;100.00
71465;BME280;59274;49.874;9.154;2022-10-30T08:23:44;100781.72;;;12.69;100.00
71465;BME280;59274;49.874;9.154;2022-10-30T08:26:09;100779.34;;;12.64;100.00
71465;BME280;59274;49.874;9.154;2022-10-30T08:28:35;100775.13;;;12.70;100.00
71465;BME280;59274;49.874;9.154;2022-10-30T08:31:01;100782.88;;;12.68;100.00
71465;BME280;59274;49.874;9.154;2022-10-30T08:33:27;100777.44;;;12.72;100.00
71465;BME280;59274;49.874;9.154;2022-10-30T08:35:57;100779.72;;;12.66;100.00
71465;BME280;59274;49.874;9.154;2022-10-30T08:38:23;100777.44;;;12.68;100.00
71465;BME280;59274;49.874;9.154;2022-10-30T08:40:49;100773.97;;;12.71;100.00
71465;BME280;59274;49.874;9.154;2022-10-30T08:43:15;100776.00;;;12.81;100.00
71465;BME280;59274;49.874;9.154;2022-10-30T08:45:40;100773.66;;;12.80;100.00
71465;BME280;59274;49.874;9.154;2022-10-30T08:48:09;100769.84;;;12.88;100.00
71465;BME280;59274;49.874;9.154;2022-10-30T08:50:35;100769.53;;;12.97;100.00
71465;BME280;59274;49.874;9.154;2022-10-30T08:53:06;100771.56;;;13.03;100.00
71465;BME280;59274;49.874;9.154;2022-10-30T08:55:33;100773.63;;;13.13;100.00
71465;BME280;59274;49.874;9.154;2022-10-30T08:57:59;100772.13;;;13.19;100.00
71465;BME280;59274;49.874;9.154;2022-10-30T09:00:25;100761.59;;;13.18;100.00
71465;BME280;59274;49.874;9.154;2022-10-30T09:02:51;100765.56;;;13.27;100.00
71465;BME280;59274;49.874;9.154;2022-10-30T09:05:17;100767.63;;;13.41;100.00
71465;BME280;59274;49.874;9.154;2022-10-30T09:07:42;100763.03;;;13.52;100.00
71465;BME280;59274;49.874;9.154;2022-10-30T09:10:08;100764.25;;;13.58;100.00
71465;BME280;59274;49.874;9.154;2022-10-30T09:12:33;100769.78;;;13.69;100.00
71465;BME280;59274;49.874;9.154;2022-10-30T09:14:59;100772.94;;;13.75;100.00
71465;BME280;59274;49.874;9.154;2022-10-30T09:17:25;100774.56;;;13.86;100.00
71465;BME280;59274;49.874;9.154;2022-10-30T09:19:51;100770.34;;;13.96;100.00
71465;BME280;59274;49.874;9.154;2022-10-30T09:22:16;100762.94;;;14.00;100.00
71465;BME280;59274;49.874;9.154;2022-10-30T09:24:42;100768.41;;;14.00;100.00
71465;BME280;59274;49.874;9.154;2022-10-30T09:27:07;100770.00;;;14.08;100.00
71465;BME280;59274;49.874;9.154;2022-10-30T09:29:33;100770.81;;;14.16;100.00
71465;BME280;59274;49.874;9.154;2022-10-30T09:32:00;100771.59;;;14.16;100.00
71465;BME280;59274;49.874;9.154;2022-10-30T09:34:26;100781.03;;;14.26;100.00
71465;BME280;59274;49.874;9.154;2022-10-30T09:36:52;100777.22;;;14.41;100.00
71465;BME280;59274;49.874;9.154;2022-10-30T09:39:17;100779.22;;;14.55;100.00
71465;BME280;59274;49.874;9.154;2022-10-30T09:55:28;100774.25;;;15.10;100.00
71465;BME280;59274;49.874;9.154;2022-10-30T09:58:19;100778.97;;;15.23;100.00
71465;BME280;59274;49.874;9.154;2022-10-30T10:01:01;100773.50;;;15.27;100.00
71465;BME280;59274;49.874;9.154;2022-10-30T10:03:40;100766.44;;;15.37;100.00
71465;BME280;59274;49.874;9.154;2022-10-30T10:06:17;100765.69;;;15.40;100.00
71465;BME280;59274;49.874;9.154;2022-10-30T10:08:55;100761.78;;;15.58;100.00
71465;BME280;59274;49.874;9.154;2022-10-30T10:14:14;100760.97;;;15.72;100.00
71465;BME280;59274;49.874;9.154;2022-10-30T10:16:44;100755.50;;;15.76;100.00
71465;BME280;59274;49.874;9.154;2022-10-30T10:21:48;100754.22;;;16.09;98.42
71465;BME280;59274;49.874;9.154;2022-10-30T10:24:19;100751.50;;;16.12;99.81
71465;BME280;59274;49.874;9.154;2022-10-30T10:26:48;100738.56;;;16.09;99.74
71465;BME280;59274;49.874;9.154;2022-10-30T10:51:06;100708.53;;;17.19;93.11
71465;BME280;59274;49.874;9.154;2022-10-30T10:56:21;100711.78;;;17.48;92.68
71465;BME280;59274;49.874;9.154;2022-10-30T10:58:55;100705.00;;;17.64;91.16
71465;BME280;59274;49.874;9.154;2022-10-30T11:01:47;100703.63;;;17.82;91.19
71465;BME280;59274;49.874;9.154;2022-10-30T11:04:37;100699.56;;;17.94;89.50
71465;BME280;59274;49.874;9.154;2022-10-30T11:07:24;100703.31;;;18.11;89.80
71465;BME280;59274;49.874;9.154;2022-10-30T11:09:55;100702.19;;;18.35;88.62
71465;BME280;59274;49.874;9.154;2022-10-30T11:12:34;100701.53;;;18.54;88.22
71465;BME280;59274;49.874;9.154;2022-10-30T11:18:11;100692.72;;;18.93;86.30
71465;BME280;59274;49.874;9.154;2022-10-30T11:21:04;100690.44;;;19.11;85.54
71465;BME280;59274;49.874;9.154;2022-10-30T11:23:42;100688.66;;;19.25;83.57
71465;BME280;59274;49.874;9.154;2022-10-30T11:31:28;100685.88;;;19.48;84.47
71465;BME280;59274;49.874;9.154;2022-10-30T11:34:12;100684.13;;;19.58;83.58
71465;BME280;59274;49.874;9.154;2022-10-30T11:36:38;100674.97;;;19.64;82.47
71465;BME280;59274;49.874;9.154;2022-10-30T11:39:13;100678.72;;;19.74;82.50
71465;BME280;59274;49.874;9.154;2022-10-30T11:41:41;100685.94;;;19.87;82.64
71465;BME280;59274;49.874;9.154;2022-10-30T11:44:08;100680.28;;;19.94;80.25
71465;BME280;59274;49.874;9.154;2022-10-30T11:46:36;100681.59;;;20.06;81.27
71465;BME280;59274;49.874;9.154;2022-10-30T11:49:02;100677.41;;;20.18;79.76
71465;BME280;59274;49.874;9.154;2022-10-30T11:51:36;100685.59;;;20.21;79.45
71465;BME280;59274;49.874;9.154;2022-10-30T11:54:04;100672.03;;;20.30;77.54
71465;BME280;59274;49.874;9.154;2022-10-30T11:56:30;100668.63;;;20.43;77.97
71465;BME280;59274;49.874;9.154;2022-10-30T11:58:58;100664.41;;;20.54;76.18
71465;BME280;59274;49.874;9.154;2022-10-30T12:01:35;100671.84;;;20.74;76.82
71465;BME280;59274;49.874;9.154;2022-10-30T12:04:24;100668.81;;;20.84;76.98
71465;BME280;59274;49.874;9.154;2022-10-30T12:07:16;100657.84;;;20.97;74.88
71465;BME280;59274;49.874;9.154;2022-10-30T12:09:44;100657.06;;;21.13;74.87
71465;BME280;59274;49.874;9.154;2022-10-30T12:12:21;100658.88;;;21.19;73.40
71465;BME280;59274;49.874;9.154;2022-10-30T12:14:48;100663.63;;;21.35;72.69
71465;BME280;59274;49.874;9.154;2022-10-30T12:17:15;100656.56;;;21.46;72.46
71465;BME280;59274;49.874;9.154;2022-10-30T12:20:00;100649.59;;;21.71;72.27
71465;BME280;59274;49.874;9.154;2022-10-30T12:22:29;100652.03;;;21.81;72.67
71465;BME280;59274;49.874;9.154;2022-10-30T12:24:56;100648.97;;;21.92;70.74
71465;BME280;59274;49.874;9.154;2022-10-30T12:27:22;100654.69;;;22.01;70.31
71465;BME280;59274;49.874;9.154;2022-10-30T12:30:05;100653.56;;;22.11;71.12
71465;BME280;59274;49.874;9.154;2022-10-30T12:32:39;100647.94;;;22.15;69.96
71465;BME280;59274;49.874;9.154;2022-10-30T12:35:30;100640.84;;;22.26;68.85
71465;BME280;59274;49.874;9.154;2022-10-30T12:37:59;100646.41;;;22.52;66.75
71465;BME280;59274;49.874;9.154;2022-10-30T12:40:30;100643.06;;;22.70;67.48
71465;BME280;59274;49.874;9.154;2022-10-30T12:45:40;100644.69;;;23.05;65.55
71465;BME280;59274;49.874;9.154;2022-10-30T12:50:41;100645.09;;;23.38;64.72
71465;BME280;59274;49.874;9.154;2022-10-30T12:53:37;100631.91;;;23.42;63.76
71465;BME280;59274;49.874;9.154;2022-10-30T12:56:08;100625.88;;;23.56;64.74
71465;BME280;59274;49.874;9.154;2022-10-30T12:58:52;100625.22;;;23.74;64.05
71465;BME280;59274;49.874;9.154;2022-10-30T13:01:32;100626.38;;;23.86;62.25
71465;BME280;59274;49.874;9.154;2022-10-30T13:04:07;100624.56;;;23.92;62.84
71465;BME280;59274;49.874;9.154;2022-10-30T13:06:41;100626.19;;;24.11;61.26
71465;BME280;59274;49.874;9.154;2022-10-30T13:17:01;100616.81;;;24.48;59.32
71465;BME280;59274;49.874;9.154;2022-10-30T13:19:27;100609.44;;;24.64;59.73
71465;BME280;59274;49.874;9.154;2022-10-30T13:22:22;100613.44;;;24.63;58.77
71465;BME280;59274;49.874;9.154;2022-10-30T13:30:22;100611.63;;;24.87;58.50
71465;BME280;59274;49.874;9.154;2022-10-30T13:38:29;100610.91;;;25.32;56.99
71465;BME280;59274;49.874;9.154;2022-10-30T13:41:22;100609.06;;;25.29;56.11
71465;BME280;59274;49.874;9.154;2022-10-30T13:52:14;100600.56;;;25.32;56.66
71465;BME280;59274;49.874;9.154;2022-10-30T13:54:44;100608.31;;;25.28;56.55
71465;BME280;59274;49.874;9.154;2022-10-30T13:57:23;100611.53;;;25.09;57.10
71465;BME280;59274;49.874;9.154;2022-10-30T14:00:05;100607.63;;;24.88;57.77
71465;BME280;59274;49.874;9.154;2022-10-30T14:06:01;100608.44;;;24.39;59.60
71465;BME280;59274;49.874;9.154;2022-10-30T14:11:25;100612.88;;;23.75;60.51
71465;BME280;59274;49.874;9.154;2022-10-30T14:13:56;100622.41;;;23.65;60.69
71465;BME280;59274;49.874;9.154;2022-10-30T14:19:13;100617.47;;;23.47;62.79
71465;BME280;59274;49.874;9.154;2022-10-30T14:21:55;100619.75;;;23.05;66.08
71465;BME280;59274;49.874;9.154;2022-10-30T14:24:23;100620.75;;;22.98;65.79
71465;BME280;59274;49.874;9.154;2022-10-30T14:39:49;100621.94;;;22.50;70.21
71465;BME280;59274;49.874;9.154;2022-10-30T14:42:52;100618.38;;;22.50;69.89
71465;BME280;59274;49.874;9.154;2022-10-30T14:48:34;100622.66;;;22.89;68.41
71465;BME280;59274;49.874;9.154;2022-10-30T14:51:21;100618.81;;;22.86;67.77
71465;BME280;59274;49.874;9.154;2022-10-30T15:07:21;100619.34;;;21.22;75.12
71465;BME280;59274;49.874;9.154;2022-10-30T15:15:22;100619.38;;;20.41;76.81
71465;BME280;59274;49.874;9.154;2022-10-30T15:17:50;100617.59;;;20.15;78.16